sensor_id;sensor_type;location;lat;lon;timestamp;temperature;humidity
6281;DHT22;3173;48.204;11.612;2022-08-21T00:32:09;16.60;99.90
6281;DHT22;3173;48.204;11.612;2022-08-21T00:34:34;16.60;99.90
6281;DHT22;3173;48.204;11.612;2022-08-21T00:37:00;16.60;99.90
6281;DHT22;3173;48.204;11.612;2022-08-21T00:39:26;16.60;99.90
6281;DHT22;3173;48.204;11.612;2022-08-21T00:41:52;16.50;99.90
6281;DHT22;3173;48.204;11.612;2022-08-21T00:44:17;16.50;99.90
6281;DHT22;3173;48.204;11.612;2022-08-21T00:46:43;16.50;99.90
6281;DHT22;3173;48.204;11.612;2022-08-21T00:49:11;16.40;99.90
6281;DHT22;3173;48.204;11.612;2022-08-21T00:51:57;16.40;99.90
6281;DHT22;3173;48.204;11.612;2022-08-21T00:54:25;16.40;99.90
6281;DHT22;3173;48.204;11.612;2022-08-21T00:56:54;16.40;99.90
6281;DHT22;3173;48.204;11.612;2022-08-21T00:59:21;16.40;99.90
6281;DHT22;3173;48.204;11.612;2022-08-21T01:01:49;16.40;99.90
6281;DHT22;3173;48.204;11.612;2022-08-21T01:04:16;16.30;99.90
6281;DHT22;3173;48.204;11.612;2022-08-21T01:06:42;16.30;99.90
6281;DHT22;3173;48.204;11.612;2022-08-21T01:09:08;16.30;99.90
6281;DHT22;3173;48.204;11.612;2022-08-21T01:11:34;16.30;99.90
6281;DHT22;3173;48.204;11.612;2022-08-21T01:14:00;16.20;99.90
6281;DHT22;3173;48.204;11.612;2022-08-21T01:16:26;16.20;99.90
6281;DHT22;3173;48.204;11.612;2022-08-21T01:18:52;16.20;99.90
6281;DHT22;3173;48.204;11.612;2022-08-21T01:21:23;16.20;99.90
6281;DHT22;3173;48.204;11.612;2022-08-21T01:23:51;16.20;99.90
6281;DHT22;3173;48.204;11.612;2022-08-21T01:26:22;16.10;99.90
6281;DHT22;3173;48.204;11.612;2022-08-21T01:28:54;16.20;99.90
6281;DHT22;3173;48.204;11.612;2022-08-21T01:31:24;16.10;99.90
6281;DHT22;3173;48.204;11.612;2022-08-21T01:33:51;16.10;99.90
6281;DHT22;3173;48.204;11.612;2022-08-21T01:36:16;16.10;99.90
6281;DHT22;3173;48.204;11.612;2022-08-21T01:38:42;16.10;99.90
6281;DHT22;3173;48.204;11.612;2022-08-21T01:41:07;16.00;99.90
6281;DHT22;3173;48.204;11.612;2022-08-21T01:43:33;16.00;99.90
6281;DHT22;3173;48.204;11.612;2022-08-21T01:45:59;16.00;99.90
6281;DHT22;3173;48.204;11.612;2022-08-21T01:48:24;16.00;99.90
6281;DHT22;3173;48.204;11.612;2022-08-21T01:50:50;16.00;99.90
6281;DHT22;3173;48.204;11.612;2022-08-21T01:53:16;16.00;99.90
6281;DHT22;3173;48.204;11.612;2022-08-21T01:55:43;16.00;99.90
6281;DHT22;3173;48.204;11.612;2022-08-21T01:58:08;16.00;99.90
6281;DHT22;3173;48.204;11.612;2022-08-21T02:00:34;15.90;99.90
6281;DHT22;3173;48.204;11.612;2022-08-21T02:02:59;15.90;99.90
6281;DHT22;3173;48.204;11.612;2022-08-21T02:05:25;15.90;99.90
6281;DHT22;3173;48.204;11.612;2022-08-21T02:07:52;15.90;99.90
6281;DHT22;3173;48.204;11.612;2022-08-21T02:10:23;15.90;99.90
6281;DHT22;3173;48.204;11.612;2022-08-21T02:12:49;15.90;99.90
6281;DHT22;3173;48.204;11.612;2022-08-21T02:15:15;15.90;99.90
6281;DHT22;3173;48.204;11.612;2022-08-21T02:17:47;15.90;99.90
6281;DHT22;3173;48.204;11.612;2022-08-21T02:20:18;15.90;99.90
6281;DHT22;3173;48.204;11.612;2022-08-21T02:22:44;15.90;99.90
6281;DHT22;3173;48.204;11.612;2022-08-21T02:25:09;15.80;99.90
6281;DHT22;3173;48.204;11.612;2022-08-21T02:27:43;15.80;99.90
6281;DHT22;3173;48.204;11.612;2022-08-21T02:30:18;15.80;99.90
6281;DHT22;3173;48.204;11.612;2022-08-21T02:32:44;15.80;99.90
6281;DHT22;3173;48.204;11.612;2022-08-21T02:35:10;15.80;99.90
6281;DHT22;3173;48.204;11.612;2022-08-21T02:37:53;15.80;99.90
6281;DHT22;3173;48.204;11.612;2022-08-21T02:40:21;15.70;99.90
6281;DHT22;3173;48.204;11.612;2022-08-21T02:42:47;15.70;99.90
6281;DHT22;3173;48.204;11.612;2022-08-21T02:45:13;15.70;99.90
6281;DHT22;3173;48.204;11.612;2022-08-21T02:47:40;15.70;99.90
6281;DHT22;3173;48.204;11.612;2022-08-21T02:50:11;15.60;99.90
6281;DHT22;3173;48.204;11.612;2022-08-21T02:52:37;15.60;99.90
6281;DHT22;3173;48.204;11.612;2022-08-21T02:55:02;15.60;99.90
6281;DHT22;3173;48.204;11.612;2022-08-21T02:57:28;15.60;99.90
6281;DHT22;3173;48.204;11.612;2022-08-21T02:59:54;15.60;99.90
6281;DHT22;3173;48.204;11.612;2022-08-21T03:02:19;15.50;99.90
6281;DHT22;3173;48.204;11.612;2022-08-21T03:04:46;15.50;99.90
6281;DHT22;3173;48.204;11.612;2022-08-21T03:07:12;15.60;99.90
6281;DHT22;3173;48.204;11.612;2022-08-21T03:09:38;15.60;99.90
6281;DHT22;3173;48.204;11.612;2022-08-21T03:12:03;15.60;99.90
6281;DHT22;3173;48.204;11.612;2022-08-21T03:14:29;15.50;99.90
6281;DHT22;3173;48.204;11.612;2022-08-21T03:16:55;15.60;99.90
6281;DHT22;3173;48.204;11.612;2022-08-21T03:19:20;15.50;99.90
6281;DHT22;3173;48.204;11.612;2022-08-21T03:21:46;15.60;99.90
6281;DHT22;3173;48.204;11.612;2022-08-21T03:24:12;15.60;99.90
6281;DHT22;3173;48.204;11.612;2022-08-21T03:26:37;15.60;99.90
6281;DHT22;3173;48.204;11.612;2022-08-21T03:29:03;15.60;99.90
6281;DHT22;3173;48.204;11.612;2022-08-21T03:31:28;15.50;99.90
6281;DHT22;3173;48.204;11.612;2022-08-21T03:33:56;15.50;99.90
6281;DHT22;3173;48.204;11.612;2022-08-21T03:36:22;15.50;99.90
6281;DHT22;3173;48.204;11.612;2022-08-21T03:38:48;15.50;99.90
6281;DHT22;3173;48.204;11.612;2022-08-21T03:41:14;15.50;99.90
6281;DHT22;3173;48.204;11.612;2022-08-21T03:43:39;15.50;99.90
6281;DHT22;3173;48.204;11.612;2022-08-21T03:46:06;15.40;99.90
6281;DHT22;3173;48.204;11.612;2022-08-21T03:48:33;15.50;99.90
6281;DHT22;3173;48.204;11.612;2022-08-21T03:50:59;15.50;99.90
6281;DHT22;3173;48.204;11.612;2022-08-21T03:53:25;15.40;99.90
6281;DHT22;3173;48.204;11.612;2022-08-21T03:55:52;15.40;99.90
6281;DHT22;3173;48.204;11.612;2022-08-21T03:58:20;15.40;99.90
6281;DHT22;3173;48.204;11.612;2022-08-21T04:00:49;15.40;99.90
6281;DHT22;3173;48.204;11.612;2022-08-21T04:03:15;15.30;99.90
6281;DHT22;3173;48.204;11.612;2022-08-21T04:05:42;15.40;99.90
6281;DHT22;3173;48.204;11.612;2022-08-21T04:08:08;15.40;99.90
6281;DHT22;3173;48.204;11.612;2022-08-21T04:10:36;15.40;99.90
6281;DHT22;3173;48.204;11.612;2022-08-21T04:13:04;15.40;99.90
6281;DHT22;3173;48.204;11.612;2022-08-21T04:15:30;15.40;99.90
6281;DHT22;3173;48.204;11.612;2022-08-21T04:17:55;15.40;99.90
6281;DHT22;3173;48.204;11.612;2022-08-21T04:20:22;15.40;99.90
6281;DHT22;3173;48.204;11.612;2022-08-21T04:22:49;15.40;99.90
6281;DHT22;3173;48.204;11.612;2022-08-21T04:25:16;15.40;99.90
6281;DHT22;3173;48.204;11.612;2022-08-21T04:27:43;15.40;99.90
6281;DHT22;3173;48.204;11.612;2022-08-21T04:30:11;15.40;99.90
6281;DHT22;3173;48.204;11.612;2022-08-21T04:32:37;15.40;99.90
6281;DHT22;3173;48.204;11.612;2022-08-21T04:35:11;15.40;99.90
6281;DHT22;3173;48.204;11.612;2022-08-21T04:37:37;15.40;99.90
6281;DHT22;3173;48.204;11.612;2022-08-21T04:40:04;15.40;99.90
6281;DHT22;3173;48.204;11.612;2022-08-21T04:42:29;15.40;99.90
6281;DHT22;3173;48.204;11.612;2022-08-21T04:44:55;15.50;99.90
6281;DHT22;3173;48.204;11.612;2022-08-21T04:47:21;15.50;99.90
6281;DHT22;3173;48.204;11.612;2022-08-21T04:49:47;15.40;99.90
6281;DHT22;3173;48.204;11.612;2022-08-21T04:52:16;15.40;99.90
6281;DHT22;3173;48.204;11.612;2022-08-21T04:54:43;15.40;99.90
6281;DHT22;3173;48.204;11.612;2022-08-21T04:57:10;15.40;99.90
6281;DHT22;3173;48.204;11.612;2022-08-21T04:59:42;15.40;99.90
6281;DHT22;3173;48.204;11.612;2022-08-21T05:02:09;15.40;99.90
6281;DHT22;3173;48.204;11.612;2022-08-21T05:04:37;15.40;99.90
6281;DHT22;3173;48.204;11.612;2022-08-21T05:07:09;15.40;99.90
6281;DHT22;3173;48.204;11.612;2022-08-21T05:09:37;15.40;99.90
6281;DHT22;3173;48.204;11.612;2022-08-21T05:12:03;15.40;99.90
6281;DHT22;3173;48.204;11.612;2022-08-21T05:14:29;15.40;99.90
6281;DHT22;3173;48.204;11.612;2022-08-21T05:16:55;15.50;99.90
6281;DHT22;3173;48.204;11.612;2022-08-21T05:19:21;15.50;99.90
6281;DHT22;3173;48.204;11.612;2022-08-21T05:21:46;15.60;99.90
6281;DHT22;3173;48.204;11.612;2022-08-21T05:24:15;15.70;99.90
6281;DHT22;3173;48.204;11.612;2022-08-21T05:26:41;15.70;99.90
6281;DHT22;3173;48.204;11.612;2022-08-21T05:29:07;15.80;99.90
6281;DHT22;3173;48.204;11.612;2022-08-21T05:31:32;15.90;99.90
6281;DHT22;3173;48.204;11.612;2022-08-21T05:33:58;15.90;99.90
6281;DHT22;3173;48.204;11.612;2022-08-21T05:36:24;15.90;99.90
6281;DHT22;3173;48.204;11.612;2022-08-21T05:38:50;16.00;99.90
6281;DHT22;3173;48.204;11.612;2022-08-21T05:41:16;16.00;99.90
6281;DHT22;3173;48.204;11.612;2022-08-21T05:43:41;16.10;99.90
6281;DHT22;3173;48.204;11.612;2022-08-21T05:46:08;16.10;99.90
6281;DHT22;3173;48.204;11.612;2022-08-21T05:48:34;16.20;99.90
6281;DHT22;3173;48.204;11.612;2022-08-21T05:51:05;16.20;99.90
6281;DHT22;3173;48.204;11.612;2022-08-21T05:53:31;16.30;99.90
6281;DHT22;3173;48.204;11.612;2022-08-21T05:55:57;16.30;99.90
6281;DHT22;3173;48.204;11.612;2022-08-21T05:58:22;16.40;99.90
6281;DHT22;3173;48.204;11.612;2022-08-21T06:00:49;16.40;99.90
6281;DHT22;3173;48.204;11.612;2022-08-21T06:03:25;16.50;99.90
6281;DHT22;3173;48.204;11.612;2022-08-21T06:05:52;16.50;99.90
6281;DHT22;3173;48.204;11.612;2022-08-21T06:08:19;16.50;99.90
6281;DHT22;3173;48.204;11.612;2022-08-21T06:10:46;16.50;99.90
6281;DHT22;3173;48.204;11.612;2022-08-21T06:13:13;16.60;99.90
6281;DHT22;3173;48.204;11.612;2022-08-21T06:15:38;16.70;99.90
6281;DHT22;3173;48.204;11.612;2022-08-21T06:18:04;16.70;99.90
6281;DHT22;3173;48.204;11.612;2022-08-21T06:20:30;16.80;99.90
6281;DHT22;3173;48.204;11.612;2022-08-21T06:22:56;16.80;99.90
6281;DHT22;3173;48.204;11.612;2022-08-21T06:25:22;16.90;99.90
6281;DHT22;3173;48.204;11.612;2022-08-21T06:27:47;16.90;99.90
6281;DHT22;3173;48.204;11.612;2022-08-21T06:30:13;16.90;99.90
6281;DHT22;3173;48.204;11.612;2022-08-21T06:32:39;17.00;99.90
6281;DHT22;3173;48.204;11.612;2022-08-21T06:35:06;17.00;99.90
6281;DHT22;3173;48.204;11.612;2022-08-21T06:37:32;17.10;99.90
6281;DHT22;3173;48.204;11.612;2022-08-21T06:39:57;17.30;99.90
6281;DHT22;3173;48.204;11.612;2022-08-21T06:42:23;17.20;99.90
6281;DHT22;3173;48.204;11.612;2022-08-21T06:44:48;17.30;99.90
